sensor_id;sensor_type;location;lat;lon;timestamp;P1;durP1;ratioP1;P2;durP2;ratioP2
40433;SDS011;26146;51.114;5.654;2022-08-02T00:01:54;7.43;;;2.10;;
40433;SDS011;26146;51.114;5.654;2022-08-02T00:05:55;6.97;;;2.28;;
40433;SDS011;26146;51.114;5.654;2022-08-02T00:09:59;7.55;;;2.00;;
40433;SDS011;26146;51.114;5.654;2022-08-02T00:14:00;7.43;;;2.00;;
40433;SDS011;26146;51.114;5.654;2022-08-02T00:18:01;8.20;;;1.90;;
40433;SDS011;26146;51.114;5.654;2022-08-02T00:22:02;8.15;;;2.42;;
40433;SDS011;26146;51.114;5.654;2022-08-02T00:26:05;8.18;;;2.30;;
40433;SDS011;26146;51.114;5.654;2022-08-02T00:30:07;6.28;;;1.95;;
40433;SDS011;26146;51.114;5.654;2022-08-02T00:34:08;6.55;;;2.00;;
40433;SDS011;26146;51.114;5.654;2022-08-02T00:38:09;5.68;;;1.90;;
40433;SDS011;26146;51.114;5.654;2022-08-02T00:42:10;7.35;;;2.00;;
40433;SDS011;26146;51.114;5.654;2022-08-02T00:46:15;6.80;;;1.60;;
40433;SDS011;26146;51.114;5.654;2022-08-02T00:50:17;7.07;;;2.10;;
40433;SDS011;26146;51.114;5.654;2022-08-02T00:54:18;7.18;;;2.35;;
40433;SDS011;26146;51.114;5.654;2022-08-02T00:58:19;6.35;;;2.10;;
40433;SDS011;26146;51.114;5.654;2022-08-02T01:02:20;7.70;;;2.00;;
40433;SDS011;26146;51.114;5.654;2022-08-02T01:06:21;8.00;;;2.13;;
40433;SDS011;26146;51.114;5.654;2022-08-02T01:10:22;8.95;;;2.13;;
40433;SDS011;26146;51.114;5.654;2022-08-02T01:14:23;8.32;;;2.53;;
40433;SDS011;26146;51.114;5.654;2022-08-02T01:18:29;6.93;;;2.33;;
40433;SDS011;26146;51.114;5.654;2022-08-02T01:22:50;8.77;;;2.85;;
40433;SDS011;26146;51.114;5.654;2022-08-02T01:31:45;7.70;;;2.70;;
40433;SDS011;26146;51.114;5.654;2022-08-02T01:35:51;8.00;;;2.50;;
40433;SDS011;26146;51.114;5.654;2022-08-02T01:39:56;7.82;;;2.45;;
40433;SDS011;26146;51.114;5.654;2022-08-02T01:44:00;7.45;;;2.40;;
40433;SDS011;26146;51.114;5.654;2022-08-02T01:48:02;7.50;;;2.50;;
40433;SDS011;26146;51.114;5.654;2022-08-02T01:52:05;10.43;;;2.60;;
40433;SDS011;26146;51.114;5.654;2022-08-02T01:56:24;8.55;;;2.55;;
40433;SDS011;26146;51.114;5.654;2022-08-02T02:00:25;8.05;;;2.10;;
40433;SDS011;26146;51.114;5.654;2022-08-02T02:04:30;8.00;;;2.40;;
40433;SDS011;26146;51.114;5.654;2022-08-02T02:08:35;6.40;;;2.25;;
40433;SDS011;26146;51.114;5.654;2022-08-02T02:12:39;8.65;;;2.45;;
40433;SDS011;26146;51.114;5.654;2022-08-02T02:16:47;7.15;;;2.47;;
40433;SDS011;26146;51.114;5.654;2022-08-02T02:20:49;7.40;;;2.70;;
40433;SDS011;26146;51.114;5.654;2022-08-02T02:24:50;7.15;;;2.58;;
40433;SDS011;26146;51.114;5.654;2022-08-02T02:28:52;8.13;;;2.60;;
40433;SDS011;26146;51.114;5.654;2022-08-02T02:37:01;9.13;;;2.85;;
40433;SDS011;26146;51.114;5.654;2022-08-02T02:41:04;8.23;;;2.90;;
40433;SDS011;26146;51.114;5.654;2022-08-02T02:45:08;10.77;;;3.23;;
40433;SDS011;26146;51.114;5.654;2022-08-02T02:49:10;9.88;;;3.08;;
40433;SDS011;26146;51.114;5.654;2022-08-02T02:53:15;8.52;;;2.80;;
40433;SDS011;26146;51.114;5.654;2022-08-02T02:57:17;7.38;;;2.88;;
40433;SDS011;26146;51.114;5.654;2022-08-02T03:01:22;7.68;;;2.60;;
40433;SDS011;26146;51.114;5.654;2022-08-02T03:05:32;7.57;;;2.65;;
40433;SDS011;26146;51.114;5.654;2022-08-02T03:09:33;8.35;;;2.60;;
40433;SDS011;26146;51.114;5.654;2022-08-02T03:13:34;10.93;;;2.92;;
40433;SDS011;26146;51.114;5.654;2022-08-02T03:17:40;8.15;;;2.58;;
40433;SDS011;26146;51.114;5.654;2022-08-02T03:21:45;10.50;;;2.90;;
40433;SDS011;26146;51.114;5.654;2022-08-02T03:25:47;8.50;;;2.80;;
40433;SDS011;26146;51.114;5.654;2022-08-02T03:29:48;7.88;;;2.83;;
40433;SDS011;26146;51.114;5.654;2022-08-02T03:33:49;10.07;;;2.80;;
40433;SDS011;26146;51.114;5.654;2022-08-02T03:37:51;8.30;;;2.72;;
40433;SDS011;26146;51.114;5.654;2022-08-02T03:41:56;8.70;;;2.70;;
40433;SDS011;26146;51.114;5.654;2022-08-02T03:45:58;7.25;;;2.72;;
40433;SDS011;26146;51.114;5.654;2022-08-02T03:50:00;7.70;;;2.60;;
40433;SDS011;26146;51.114;5.654;2022-08-02T03:54:02;8.75;;;2.47;;
40433;SDS011;26146;51.114;5.654;2022-08-02T03:58:03;6.90;;;2.30;;
40433;SDS011;26146;51.114;5.654;2022-08-02T04:02:05;7.35;;;2.55;;
40433;SDS011;26146;51.114;5.654;2022-08-02T04:06:06;8.00;;;2.70;;
40433;SDS011;26146;51.114;5.654;2022-08-02T04:10:07;8.82;;;2.63;;
40433;SDS011;26146;51.114;5.654;2022-08-02T04:14:09;8.45;;;2.45;;
40433;SDS011;26146;51.114;5.654;2022-08-02T04:18:11;7.55;;;2.70;;
40433;SDS011;26146;51.114;5.654;2022-08-02T04:22:13;8.23;;;2.20;;
40433;SDS011;26146;51.114;5.654;2022-08-02T04:26:17;7.77;;;2.73;;
40433;SDS011;26146;51.114;5.654;2022-08-02T04:30:19;6.25;;;2.42;;
40433;SDS011;26146;51.114;5.654;2022-08-02T04:34:20;8.85;;;3.00;;
40433;SDS011;26146;51.114;5.654;2022-08-02T04:38:21;8.70;;;2.72;;
40433;SDS011;26146;51.114;5.654;2022-08-02T04:42:23;8.93;;;2.67;;
40433;SDS011;26146;51.114;5.654;2022-08-02T04:46:25;8.55;;;2.75;;
40433;SDS011;26146;51.114;5.654;2022-08-02T04:50:26;9.18;;;3.00;;
40433;SDS011;26146;51.114;5.654;2022-08-02T04:54:27;8.38;;;3.15;;
40433;SDS011;26146;51.114;5.654;2022-08-02T04:58:28;10.82;;;3.33;;
40433;SDS011;26146;51.114;5.654;2022-08-02T05:02:28;10.75;;;3.60;;
40433;SDS011;26146;51.114;5.654;2022-08-02T05:06:30;10.50;;;3.50;;
40433;SDS011;26146;51.114;5.654;2022-08-02T05:10:31;9.38;;;3.60;;
40433;SDS011;26146;51.114;5.654;2022-08-02T05:14:32;11.82;;;4.55;;
40433;SDS011;26146;51.114;5.654;2022-08-02T05:18:33;10.25;;;4.43;;
40433;SDS011;26146;51.114;5.654;2022-08-02T05:22:34;10.30;;;4.80;;
40433;SDS011;26146;51.114;5.654;2022-08-02T05:26:35;11.38;;;5.00;;
40433;SDS011;26146;51.114;5.654;2022-08-02T05:30:36;10.20;;;4.93;;
40433;SDS011;26146;51.114;5.654;2022-08-02T05:34:37;9.70;;;4.40;;
40433;SDS011;26146;51.114;5.654;2022-08-02T05:38:38;9.23;;;4.68;;
40433;SDS011;26146;51.114;5.654;2022-08-02T05:42:39;9.15;;;4.00;;
40433;SDS011;26146;51.114;5.654;2022-08-02T05:46:41;9.45;;;4.25;;
40433;SDS011;26146;51.114;5.654;2022-08-02T05:50:44;8.23;;;3.70;;
40433;SDS011;26146;51.114;5.654;2022-08-02T05:54:49;8.50;;;3.60;;
40433;SDS011;26146;51.114;5.654;2022-08-02T06:03:26;7.65;;;3.65;;
40433;SDS011;26146;51.114;5.654;2022-08-02T06:07:33;8.10;;;3.53;;
40433;SDS011;26146;51.114;5.654;2022-08-02T06:11:38;11.10;;;3.97;;
40433;SDS011;26146;51.114;5.654;2022-08-02T06:15:42;8.18;;;3.33;;
40433;SDS011;26146;51.114;5.654;2022-08-02T06:19:43;9.40;;;3.42;;
40433;SDS011;26146;51.114;5.654;2022-08-02T06:23:46;8.15;;;3.53;;
40433;SDS011;26146;51.114;5.654;2022-08-02T06:27:47;8.00;;;3.20;;
40433;SDS011;26146;51.114;5.654;2022-08-02T06:31:50;7.50;;;3.13;;
40433;SDS011;26146;51.114;5.654;2022-08-02T06:44:27;7.97;;;3.00;;
40433;SDS011;26146;51.114;5.654;2022-08-02T06:48:31;11.02;;;2.97;;
40433;SDS011;26146;51.114;5.654;2022-08-02T06:52:37;7.55;;;3.00;;
40433;SDS011;26146;51.114;5.654;2022-08-02T06:56:38;7.70;;;2.90;;
40433;SDS011;26146;51.114;5.654;2022-08-02T07:00:39;7.75;;;2.50;;
40433;SDS011;26146;51.114;5.654;2022-08-02T07:04:41;6.70;;;2.50;;
40433;SDS011;26146;51.114;5.654;2022-08-02T07:08:42;6.82;;;2.65;;
40433;SDS011;26146;51.114;5.654;2022-08-02T07:12:43;7.80;;;2.58;;
40433;SDS011;26146;51.114;5.654;2022-08-02T07:16:44;6.05;;;2.35;;
40433;SDS011;26146;51.114;5.654;2022-08-02T07:20:47;6.10;;;2.28;;
40433;SDS011;26146;51.114;5.654;2022-08-02T07:24:49;6.20;;;2.00;;
40433;SDS011;26146;51.114;5.654;2022-08-02T07:28:50;6.15;;;1.90;;
40433;SDS011;26146;51.114;5.654;2022-08-02T07:32:51;6.40;;;1.75;;
40433;SDS011;26146;51.114;5.654;2022-08-02T07:36:52;6.10;;;1.80;;
40433;SDS011;26146;51.114;5.654;2022-08-02T07:40:52;7.13;;;2.03;;
40433;SDS011;26146;51.114;5.654;2022-08-02T07:44:54;5.47;;;1.58;;
40433;SDS011;26146;51.114;5.654;2022-08-02T07:48:55;5.85;;;1.58;;
40433;SDS011;26146;51.114;5.654;2022-08-02T07:52:56;5.05;;;1.30;;
40433;SDS011;26146;51.114;5.654;2022-08-02T07:56:57;4.63;;;1.33;;
40433;SDS011;26146;51.114;5.654;2022-08-02T08:00:58;4.28;;;1.20;;
40433;SDS011;26146;51.114;5.654;2022-08-02T08:04:59;5.70;;;1.48;;
40433;SDS011;26146;51.114;5.654;2022-08-02T08:09:02;5.28;;;1.45;;
40433;SDS011;26146;51.114;5.654;2022-08-02T08:13:03;5.45;;;1.60;;
40433;SDS011;26146;51.114;5.654;2022-08-02T08:17:04;4.80;;;1.50;;
40433;SDS011;26146;51.114;5.654;2022-08-02T08:21:05;5.32;;;1.20;;
40433;SDS011;26146;51.114;5.654;2022-08-02T08:25:07;5.85;;;1.30;;
40433;SDS011;26146;51.114;5.654;2022-08-02T08:29:08;6.50;;;1.50;;
40433;SDS011;26146;51.114;5.654;2022-08-02T08:33:11;4.50;;;1.30;;
40433;SDS011;26146;51.114;5.654;2022-08-02T08:37:12;6.55;;;1.40;;
40433;SDS011;26146;51.114;5.654;2022-08-02T08:41:17;6.00;;;1.25;;
40433;SDS011;26146;51.114;5.654;2022-08-02T08:45:18;4.53;;;1.30;;
40433;SDS011;26146;51.114;5.654;2022-08-02T08:49:22;5.30;;;1.60;;
40433;SDS011;26146;51.114;5.654;2022-08-02T08:53:30;4.38;;;1.30;;
40433;SDS011;26146;51.114;5.654;2022-08-02T08:57:38;5.53;;;1.50;;
40433;SDS011;26146;51.114;5.654;2022-08-02T09:01:42;4.07;;;1.17;;
40433;SDS011;26146;51.114;5.654;2022-08-02T09:05:46;6.03;;;1.30;;
40433;SDS011;26146;51.114;5.654;2022-08-02T09:09:47;4.53;;;1.10;;
40433;SDS011;26146;51.114;5.654;2022-08-02T09:13:49;5.03;;;1.40;;
40433;SDS011;26146;51.114;5.654;2022-08-02T09:17:54;6.22;;;1.30;;
40433;SDS011;26146;51.114;5.654;2022-08-02T09:22:03;4.82;;;1.40;;
40433;SDS011;26146;51.114;5.654;2022-08-02T09:26:12;5.10;;;1.30;;
40433;SDS011;26146;51.114;5.654;2022-08-02T09:30:17;4.55;;;1.30;;
40433;SDS011;26146;51.114;5.654;2022-08-02T09:34:18;4.07;;;1.33;;
40433;SDS011;26146;51.114;5.654;2022-08-02T09:38:18;6.15;;;1.50;;
40433;SDS011;26146;51.114;5.654;2022-08-02T09:42:22;6.10;;;1.30;;
40433;SDS011;26146;51.114;5.654;2022-08-02T09:46:24;5.22;;;1.40;;
40433;SDS011;26146;51.114;5.654;2022-08-02T09:50:29;6.30;;;1.55;;
40433;SDS011;26146;51.114;5.654;2022-08-02T09:54:30;4.75;;;1.27;;
40433;SDS011;26146;51.114;5.654;2022-08-02T09:58:32;24.55;;;1.90;;
40433;SDS011;26146;51.114;5.654;2022-08-02T10:07:09;5.15;;;1.25;;
40433;SDS011;26146;51.114;5.654;2022-08-02T10:11:12;5.05;;;1.35;;
40433;SDS011;26146;51.114;5.654;2022-08-02T10:15:14;4.50;;;1.20;;
40433;SDS011;26146;51.114;5.654;2022-08-02T10:19:16;4.45;;;1.30;;
40433;SDS011;26146;51.114;5.654;2022-08-02T10:23:17;5.63;;;1.35;;
40433;SDS011;26146;51.114;5.654;2022-08-02T10:27:19;6.43;;;1.40;;
40433;SDS011;26146;51.114;5.654;2022-08-02T10:31:23;4.32;;;1.30;;
40433;SDS011;26146;51.114;5.654;2022-08-02T10:35:26;4.28;;;1.20;;
40433;SDS011;26146;51.114;5.654;2022-08-02T10:39:44;4.20;;;1.10;;
40433;SDS011;26146;51.114;5.654;2022-08-02T10:43:46;4.28;;;1.10;;
40433;SDS011;26146;51.114;5.654;2022-08-02T10:47:59;4.88;;;1.27;;
40433;SDS011;26146;51.114;5.654;2022-08-02T10:52:07;3.78;;;1.10;;
40433;SDS011;26146;51.114;5.654;2022-08-02T10:56:08;4.03;;;1.20;;
40433;SDS011;26146;51.114;5.654;2022-08-02T11:04:13;4.07;;;1.20;;
40433;SDS011;26146;51.114;5.654;2022-08-02T11:08:18;4.80;;;1.52;;
40433;SDS011;26146;51.114;5.654;2022-08-02T11:12:22;3.10;;;1.00;;
40433;SDS011;26146;51.114;5.654;2022-08-02T11:16:23;4.50;;;1.20;;
40433;SDS011;26146;51.114;5.654;2022-08-02T11:25:33;4.25;;;1.13;;
40433;SDS011;26146;51.114;5.654;2022-08-02T11:29:37;5.07;;;1.30;;
40433;SDS011;26146;51.114;5.654;2022-08-02T11:33:43;4.53;;;1.10;;
40433;SDS011;26146;51.114;5.654;2022-08-02T11:37:44;4.10;;;1.05;;
40433;SDS011;26146;51.114;5.654;2022-08-02T11:41:54;5.03;;;1.33;;
40433;SDS011;26146;51.114;5.654;2022-08-02T11:45:56;5.55;;;1.20;;
40433;SDS011;26146;51.114;5.654;2022-08-02T11:50:07;4.47;;;1.00;;
40433;SDS011;26146;51.114;5.654;2022-08-02T11:54:09;3.65;;;1.05;;
40433;SDS011;26146;51.114;5.654;2022-08-02T11:58:10;3.90;;;1.10;;
40433;SDS011;26146;51.114;5.654;2022-08-02T12:02:11;4.82;;;1.10;;
40433;SDS011;26146;51.114;5.654;2022-08-02T12:06:12;3.40;;;1.00;;
40433;SDS011;26146;51.114;5.654;2022-08-02T12:10:18;3.97;;;1.02;;
40433;SDS011;26146;51.114;5.654;2022-08-02T12:14:21;3.17;;;0.90;;
40433;SDS011;26146;51.114;5.654;2022-08-02T12:18:23;3.30;;;1.00;;
40433;SDS011;26146;51.114;5.654;2022-08-02T12:22:45;5.78;;;1.10;;
40433;SDS011;26146;51.114;5.654;2022-08-02T12:26:46;3.80;;;1.00;;
40433;SDS011;26146;51.114;5.654;2022-08-02T12:30:48;4.63;;;1.20;;
40433;SDS011;26146;51.114;5.654;2022-08-02T12:35:13;3.28;;;0.80;;
40433;SDS011;26146;51.114;5.654;2022-08-02T12:39:16;4.28;;;0.88;;
40433;SDS011;26146;51.114;5.654;2022-08-02T12:43:26;3.22;;;0.73;;
40433;SDS011;26146;51.114;5.654;2022-08-02T12:47:27;3.22;;;0.68;;
40433;SDS011;26146;51.114;5.654;2022-08-02T12:51:36;4.75;;;0.90;;
40433;SDS011;26146;51.114;5.654;2022-08-02T12:56:25;3.95;;;0.77;;
40433;SDS011;26146;51.114;5.654;2022-08-02T13:00:08;3.85;;;0.85;;
40433;SDS011;26146;51.114;5.654;2022-08-02T13:04:09;4.38;;;0.75;;
40433;SDS011;26146;51.114;5.654;2022-08-02T13:08:10;3.88;;;0.80;;
40433;SDS011;26146;51.114;5.654;2022-08-02T13:12:14;3.40;;;0.88;;
40433;SDS011;26146;51.114;5.654;2022-08-02T13:16:15;4.90;;;0.90;;
40433;SDS011;26146;51.114;5.654;2022-08-02T13:20:16;4.63;;;0.85;;
40433;SDS011;26146;51.114;5.654;2022-08-02T13:24:18;5.35;;;0.75;;
40433;SDS011;26146;51.114;5.654;2022-08-02T13:28:19;3.58;;;0.90;;
40433;SDS011;26146;51.114;5.654;2022-08-02T13:32:21;5.20;;;0.85;;
40433;SDS011;26146;51.114;5.654;2022-08-02T13:36:22;4.28;;;0.80;;
40433;SDS011;26146;51.114;5.654;2022-08-02T13:40:23;4.07;;;0.70;;
40433;SDS011;26146;51.114;5.654;2022-08-02T13:44:24;5.43;;;0.93;;
40433;SDS011;26146;51.114;5.654;2022-08-02T13:48:25;3.63;;;0.90;;
40433;SDS011;26146;51.114;5.654;2022-08-02T13:52:27;3.00;;;0.63;;
40433;SDS011;26146;51.114;5.654;2022-08-02T13:56:28;3.88;;;1.10;;
40433;SDS011;26146;51.114;5.654;2022-08-02T14:00:31;4.32;;;0.80;;
40433;SDS011;26146;51.114;5.654;2022-08-02T14:04:34;3.42;;;0.82;;
40433;SDS011;26146;51.114;5.654;2022-08-02T14:08:38;3.22;;;0.75;;
40433;SDS011;26146;51.114;5.654;2022-08-02T14:12:41;4.15;;;0.75;;
40433;SDS011;26146;51.114;5.654;2022-08-02T14:16:42;3.28;;;0.63;;
40433;SDS011;26146;51.114;5.654;2022-08-02T14:20:43;3.60;;;0.77;;
40433;SDS011;26146;51.114;5.654;2022-08-02T14:24:45;4.82;;;0.90;;
40433;SDS011;26146;51.114;5.654;2022-08-02T14:28:45;5.38;;;0.70;;
40433;SDS011;26146;51.114;5.654;2022-08-02T14:32:46;4.63;;;0.70;;
40433;SDS011;26146;51.114;5.654;2022-08-02T14:36:47;6.20;;;1.10;;
40433;SDS011;26146;51.114;5.654;2022-08-02T14:40:48;3.97;;;0.77;;
40433;SDS011;26146;51.114;5.654;2022-08-02T14:44:49;3.40;;;0.70;;
40433;SDS011;26146;51.114;5.654;2022-08-02T14:48:50;3.85;;;0.85;;
40433;SDS011;26146;51.114;5.654;2022-08-02T14:52:51;3.13;;;0.80;;
40433;SDS011;26146;51.114;5.654;2022-08-02T14:56:52;4.45;;;0.80;;
40433;SDS011;26146;51.114;5.654;2022-08-02T15:00:53;3.78;;;0.80;;
40433;SDS011;26146;51.114;5.654;2022-08-02T15:04:54;3.40;;;0.82;;
40433;SDS011;26146;51.114;5.654;2022-08-02T15:08:57;3.85;;;0.80;;
40433;SDS011;26146;51.114;5.654;2022-08-02T15:12:59;3.92;;;0.73;;
40433;SDS011;26146;51.114;5.654;2022-08-02T15:16:59;4.40;;;0.70;;
40433;SDS011;26146;51.114;5.654;2022-08-02T15:21:00;5.50;;;0.90;;
40433;SDS011;26146;51.114;5.654;2022-08-02T15:25:02;4.32;;;0.80;;
40433;SDS011;26146;51.114;5.654;2022-08-02T15:29:03;4.05;;;0.80;;
40433;SDS011;26146;51.114;5.654;2022-08-02T15:33:04;3.55;;;0.85;;
40433;SDS011;26146;51.114;5.654;2022-08-02T15:37:05;3.33;;;0.75;;
40433;SDS011;26146;51.114;5.654;2022-08-02T15:45:12;3.47;;;0.77;;
40433;SDS011;26146;51.114;5.654;2022-08-02T15:49:13;4.10;;;0.90;;
40433;SDS011;26146;51.114;5.654;2022-08-02T15:53:14;3.30;;;0.63;;
40433;SDS011;26146;51.114;5.654;2022-08-02T15:57:15;6.30;;;0.95;;
40433;SDS011;26146;51.114;5.654;2022-08-02T16:01:16;4.43;;;0.70;;
40433;SDS011;26146;51.114;5.654;2022-08-02T16:05:17;7.15;;;0.88;;
40433;SDS011;26146;51.114;5.654;2022-08-02T16:09:19;2.85;;;0.52;;
40433;SDS011;26146;51.114;5.654;2022-08-02T16:13:20;4.22;;;0.95;;
40433;SDS011;26146;51.114;5.654;2022-08-02T16:17:40;2.88;;;0.80;;
40433;SDS011;26146;51.114;5.654;2022-08-02T16:21:41;3.97;;;0.75;;
40433;SDS011;26146;51.114;5.654;2022-08-02T16:25:42;6.50;;;0.70;;
40433;SDS011;26146;51.114;5.654;2022-08-02T16:29:43;3.58;;;0.65;;
40433;SDS011;26146;51.114;5.654;2022-08-02T16:33:45;6.22;;;0.60;;
40433;SDS011;26146;51.114;5.654;2022-08-02T16:37:46;4.80;;;0.70;;
40433;SDS011;26146;51.114;5.654;2022-08-02T16:41:49;7.15;;;0.93;;
40433;SDS011;26146;51.114;5.654;2022-08-02T16:45:50;4.97;;;0.80;;
40433;SDS011;26146;51.114;5.654;2022-08-02T16:49:51;2.70;;;0.60;;
40433;SDS011;26146;51.114;5.654;2022-08-02T16:53:52;5.78;;;0.93;;
40433;SDS011;26146;51.114;5.654;2022-08-02T16:57:53;3.63;;;0.73;;
40433;SDS011;26146;51.114;5.654;2022-08-02T17:01:54;5.18;;;0.80;;
40433;SDS011;26146;51.114;5.654;2022-08-02T17:05:56;4.82;;;0.80;;
40433;SDS011;26146;51.114;5.654;2022-08-02T17:09:57;3.80;;;0.70;;
40433;SDS011;26146;51.114;5.654;2022-08-02T17:13:57;3.17;;;0.57;;
40433;SDS011;26146;51.114;5.654;2022-08-02T17:18:01;5.83;;;1.10;;
40433;SDS011;26146;51.114;5.654;2022-08-02T17:22:02;5.90;;;0.90;;
40433;SDS011;26146;51.114;5.654;2022-08-02T17:26:03;5.03;;;0.70;;
40433;SDS011;26146;51.114;5.654;2022-08-02T17:30:04;4.13;;;0.80;;
40433;SDS011;26146;51.114;5.654;2022-08-02T17:34:06;4.13;;;0.77;;
40433;SDS011;26146;51.114;5.654;2022-08-02T17:38:07;5.43;;;0.77;;
40433;SDS011;26146;51.114;5.654;2022-08-02T17:42:07;6.95;;;1.00;;
40433;SDS011;26146;51.114;5.654;2022-08-02T17:46:13;3.20;;;0.70;;
40433;SDS011;26146;51.114;5.654;2022-08-02T17:50:14;6.45;;;0.80;;
40433;SDS011;26146;51.114;5.654;2022-08-02T17:54:15;6.13;;;0.82;;
40433;SDS011;26146;51.114;5.654;2022-08-02T17:58:17;4.28;;;0.80;;
40433;SDS011;26146;51.114;5.654;2022-08-02T18:02:18;4.40;;;0.70;;
40433;SDS011;26146;51.114;5.654;2022-08-02T18:06:19;3.63;;;0.70;;
40433;SDS011;26146;51.114;5.654;2022-08-02T18:10:20;4.30;;;0.60;;
40433;SDS011;26146;51.114;5.654;2022-08-02T18:14:21;4.05;;;0.70;;
40433;SDS011;26146;51.114;5.654;2022-08-02T18:18:22;5.47;;;1.05;;
40433;SDS011;26146;51.114;5.654;2022-08-02T18:22:24;6.47;;;0.70;;
40433;SDS011;26146;51.114;5.654;2022-08-02T18:26:26;4.43;;;0.80;;
40433;SDS011;26146;51.114;5.654;2022-08-02T18:30:27;6.07;;;1.13;;
40433;SDS011;26146;51.114;5.654;2022-08-02T18:34:29;4.78;;;0.80;;
40433;SDS011;26146;51.114;5.654;2022-08-02T18:38:32;4.93;;;0.90;;
40433;SDS011;26146;51.114;5.654;2022-08-02T18:42:32;4.53;;;0.80;;
40433;SDS011;26146;51.114;5.654;2022-08-02T18:46:33;4.55;;;0.70;;
40433;SDS011;26146;51.114;5.654;2022-08-02T18:50:34;6.30;;;0.80;;
40433;SDS011;26146;51.114;5.654;2022-08-02T18:54:35;7.68;;;0.80;;
40433;SDS011;26146;51.114;5.654;2022-08-02T18:58:36;3.42;;;0.70;;
40433;SDS011;26146;51.114;5.654;2022-08-02T19:02:37;4.13;;;0.85;;
40433;SDS011;26146;51.114;5.654;2022-08-02T19:06:41;7.18;;;0.95;;
40433;SDS011;26146;51.114;5.654;2022-08-02T19:10:43;6.65;;;1.42;;
40433;SDS011;26146;51.114;5.654;2022-08-02T19:14:44;4.80;;;1.05;;
40433;SDS011;26146;51.114;5.654;2022-08-02T19:18:45;4.50;;;0.98;;
40433;SDS011;26146;51.114;5.654;2022-08-02T19:22:46;6.15;;;1.00;;
40433;SDS011;26146;51.114;5.654;2022-08-02T19:26:49;5.55;;;0.82;;
40433;SDS011;26146;51.114;5.654;2022-08-02T19:30:50;4.68;;;0.90;;
40433;SDS011;26146;51.114;5.654;2022-08-02T19:34:51;5.05;;;0.88;;
40433;SDS011;26146;51.114;5.654;2022-08-02T19:38:52;7.38;;;0.85;;
40433;SDS011;26146;51.114;5.654;2022-08-02T19:42:54;7.97;;;0.90;;
40433;SDS011;26146;51.114;5.654;2022-08-02T19:46:56;6.10;;;0.95;;
40433;SDS011;26146;51.114;5.654;2022-08-02T19:50:57;3.97;;;0.90;;
40433;SDS011;26146;51.114;5.654;2022-08-02T19:54:58;4.90;;;0.82;;
40433;SDS011;26146;51.114;5.654;2022-08-02T19:59:01;6.23;;;1.07;;
40433;SDS011;26146;51.114;5.654;2022-08-02T20:03:05;7.22;;;1.10;;
40433;SDS011;26146;51.114;5.654;2022-08-02T20:07:06;8.57;;;1.30;;
40433;SDS011;26146;51.114;5.654;2022-08-02T20:11:07;8.10;;;1.20;;
40433;SDS011;26146;51.114;5.654;2022-08-02T20:15:09;8.20;;;1.65;;
40433;SDS011;26146;51.114;5.654;2022-08-02T20:19:10;5.03;;;0.95;;
40433;SDS011;26146;51.114;5.654;2022-08-02T20:23:13;6.13;;;1.10;;
40433;SDS011;26146;51.114;5.654;2022-08-02T20:27:14;6.50;;;1.10;;
40433;SDS011;26146;51.114;5.654;2022-08-02T20:31:16;6.05;;;1.20;;
40433;SDS011;26146;51.114;5.654;2022-08-02T20:35:16;6.90;;;1.27;;
40433;SDS011;26146;51.114;5.654;2022-08-02T20:39:18;6.60;;;1.27;;
40433;SDS011;26146;51.114;5.654;2022-08-02T20:43:19;6.70;;;1.20;;
40433;SDS011;26146;51.114;5.654;2022-08-02T20:47:21;6.07;;;1.30;;
40433;SDS011;26146;51.114;5.654;2022-08-02T20:51:22;6.05;;;1.20;;
40433;SDS011;26146;51.114;5.654;2022-08-02T20:55:23;5.25;;;1.10;;
40433;SDS011;26146;51.114;5.654;2022-08-02T20:59:24;5.43;;;1.10;;
40433;SDS011;26146;51.114;5.654;2022-08-02T21:03:25;6.47;;;1.27;;
40433;SDS011;26146;51.114;5.654;2022-08-02T21:07:26;5.88;;;1.02;;
40433;SDS011;26146;51.114;5.654;2022-08-02T21:11:28;5.25;;;1.13;;
40433;SDS011;26146;51.114;5.654;2022-08-02T21:15:29;7.47;;;1.15;;
40433;SDS011;26146;51.114;5.654;2022-08-02T21:19:33;6.63;;;1.48;;
40433;SDS011;26146;51.114;5.654;2022-08-02T21:23:34;5.18;;;1.20;;
40433;SDS011;26146;51.114;5.654;2022-08-02T21:27:37;7.13;;;0.90;;
40433;SDS011;26146;51.114;5.654;2022-08-02T21:31:38;5.95;;;1.10;;
40433;SDS011;26146;51.114;5.654;2022-08-02T21:35:39;4.63;;;1.00;;
40433;SDS011;26146;51.114;5.654;2022-08-02T21:39:40;6.43;;;1.20;;
40433;SDS011;26146;51.114;5.654;2022-08-02T21:43:41;4.68;;;1.13;;
40433;SDS011;26146;51.114;5.654;2022-08-02T21:47:42;5.47;;;1.00;;
40433;SDS011;26146;51.114;5.654;2022-08-02T21:51:44;5.38;;;1.20;;
40433;SDS011;26146;51.114;5.654;2022-08-02T21:55:45;6.47;;;1.25;;
40433;SDS011;26146;51.114;5.654;2022-08-02T21:59:46;6.85;;;1.30;;
40433;SDS011;26146;51.114;5.654;2022-08-02T22:03:48;5.45;;;1.02;;
40433;SDS011;26146;51.114;5.654;2022-08-02T22:07:49;5.03;;;1.08;;
40433;SDS011;26146;51.114;5.654;2022-08-02T22:11:50;4.05;;;1.02;;
40433;SDS011;26146;51.114;5.654;2022-08-02T22:15:52;5.05;;;1.05;;
40433;SDS011;26146;51.114;5.654;2022-08-02T22:19:53;4.70;;;0.95;;
40433;SDS011;26146;51.114;5.654;2022-08-02T22:23:54;5.50;;;1.00;;
40433;SDS011;26146;51.114;5.654;2022-08-02T22:27:57;6.55;;;1.02;;
40433;SDS011;26146;51.114;5.654;2022-08-02T22:31:58;7.80;;;1.40;;
40433;SDS011;26146;51.114;5.654;2022-08-02T22:35:59;4.13;;;1.10;;
40433;SDS011;26146;51.114;5.654;2022-08-02T22:40:00;5.13;;;1.13;;
40433;SDS011;26146;51.114;5.654;2022-08-02T22:44:02;5.10;;;1.20;;
40433;SDS011;26146;51.114;5.654;2022-08-02T22:48:03;5.60;;;1.10;;
40433;SDS011;26146;51.114;5.654;2022-08-02T22:52:05;5.95;;;1.10;;
40433;SDS011;26146;51.114;5.654;2022-08-02T22:56:06;5.93;;;1.10;;
40433;SDS011;26146;51.114;5.654;2022-08-02T23:00:07;7.03;;;1.23;;
40433;SDS011;26146;51.114;5.654;2022-08-02T23:04:09;6.15;;;1.23;;
40433;SDS011;26146;51.114;5.654;2022-08-02T23:08:10;5.68;;;1.20;;
40433;SDS011;26146;51.114;5.654;2022-08-02T23:12:11;5.43;;;1.40;;
40433;SDS011;26146;51.114;5.654;2022-08-02T23:16:16;6.97;;;1.27;;
40433;SDS011;26146;51.114;5.654;2022-08-02T23:20:36;6.05;;;1.38;;
40433;SDS011;26146;51.114;5.654;2022-08-02T23:24:37;5.25;;;1.40;;
40433;SDS011;26146;51.114;5.654;2022-08-02T23:28:38;6.40;;;1.50;;
40433;SDS011;26146;51.114;5.654;2022-08-02T23:32:41;5.88;;;1.33;;
40433;SDS011;26146;51.114;5.654;2022-08-02T23:36:42;6.78;;;1.33;;
40433;SDS011;26146;51.114;5.654;2022-08-02T23:40:43;4.78;;;1.23;;
40433;SDS011;26146;51.114;5.654;2022-08-02T23:44:44;5.97;;;1.40;;
40433;SDS011;26146;51.114;5.654;2022-08-02T23:48:44;5.72;;;1.40;;
40433;SDS011;26146;51.114;5.654;2022-08-02T23:52:45;6.60;;;1.83;;
40433;SDS011;26146;51.114;5.654;2022-08-02T23:56:46;6.50;;;1.60;;
